createdAt,value
2022-11-09T00:00:20.835Z,1.70
2022-11-09T00:01:20.820Z,1.70
2022-11-09T00:02:20.826Z,3.70
2022-11-09T00:03:21.227Z,1.30
2022-11-09T00:04:20.807Z,1.60
2022-11-09T00:05:20.943Z,2.00
2022-11-09T00:06:20.943Z,2.10
2022-11-09T00:07:20.797Z,1.30
2022-11-09T00:08:20.750Z,1.90
2022-11-09T00:09:20.778Z,1.30
2022-11-09T00:10:20.734Z,1.60
2022-11-09T00:11:20.891Z,1.50
2022-11-09T00:12:20.712Z,2.20
2022-11-09T00:13:21.135Z,1.30
2022-11-09T00:14:20.680Z,1.20
2022-11-09T00:15:20.677Z,2.30
2022-11-09T00:16:20.689Z,3.20
2022-11-09T00:17:20.886Z,2.20
2022-11-09T00:18:20.644Z,1.40
2022-11-09T00:19:20.638Z,1.80
2022-11-09T00:20:20.620Z,1.10
2022-11-09T00:21:20.601Z,3.00
2022-11-09T00:22:20.620Z,1.50
2022-11-09T00:23:20.988Z,2.10
2022-11-09T00:24:20.574Z,1.50
2022-11-09T00:25:20.574Z,2.10
2022-11-09T00:26:20.567Z,1.30
2022-11-09T00:27:20.539Z,1.30
2022-11-09T00:28:20.544Z,1.50
2022-11-09T00:29:20.688Z,1.40
2022-11-09T00:30:20.529Z,3.10
2022-11-09T00:31:20.495Z,2.60
2022-11-09T00:32:23.985Z,1.80
2022-11-09T00:33:21.857Z,1.80
2022-11-09T00:34:20.472Z,2.00
2022-11-09T00:35:20.637Z,2.60
2022-11-09T00:36:20.447Z,1.70
2022-11-09T00:37:20.480Z,1.30
2022-11-09T00:38:20.419Z,2.10
2022-11-09T00:39:20.421Z,1.30
2022-11-09T00:40:20.391Z,2.30
2022-11-09T00:41:20.612Z,2.50
2022-11-09T00:42:20.454Z,1.90
2022-11-09T00:43:20.582Z,1.40
2022-11-09T00:44:20.351Z,1.70
2022-11-09T00:45:20.346Z,1.80
2022-11-09T00:46:20.348Z,1.90
2022-11-09T00:47:20.498Z,1.40
2022-11-09T00:48:20.301Z,1.80
2022-11-09T00:49:20.291Z,1.70
2022-11-09T00:50:20.296Z,1.70
2022-11-09T00:51:20.281Z,2.20
2022-11-09T00:52:20.265Z,2.10
2022-11-09T00:53:20.995Z,1.20
2022-11-09T00:54:20.250Z,1.50
2022-11-09T00:55:20.232Z,1.50
2022-11-09T00:56:20.237Z,1.40
2022-11-09T00:57:20.215Z,2.70
2022-11-09T00:58:20.201Z,1.50
2022-11-09T00:59:20.350Z,1.10
2022-11-09T01:00:20.181Z,1.30
2022-11-09T01:01:20.248Z,1.30
2022-11-09T01:02:20.161Z,1.50
2022-11-09T01:03:20.507Z,2.60
2022-11-09T01:04:20.145Z,2.50
2022-11-09T01:05:20.291Z,2.20
2022-11-09T01:06:20.121Z,1.80
2022-11-09T01:07:20.136Z,1.80
2022-11-09T01:08:20.097Z,1.50
2022-11-09T01:09:20.080Z,2.00
2022-11-09T01:10:20.241Z,2.10
2022-11-09T01:11:20.055Z,1.30
2022-11-09T01:12:20.051Z,1.40
2022-11-09T01:13:20.380Z,2.90
2022-11-09T01:14:20.033Z,2.10
2022-11-09T01:15:20.165Z,0.90
2022-11-09T01:16:20.006Z,1.80
2022-11-09T01:17:19.996Z,2.00
2022-11-09T01:18:20.001Z,2.30
2022-11-09T01:19:19.993Z,1.10
2022-11-09T01:20:19.964Z,2.20
2022-11-09T01:21:20.169Z,1.70
2022-11-09T01:22:19.941Z,1.90
2022-11-09T01:23:20.144Z,1.20
2022-11-09T01:24:19.920Z,1.10
2022-11-09T01:25:19.901Z,1.40
2022-11-09T01:26:19.904Z,3.10
2022-11-09T01:27:20.071Z,1.20
2022-11-09T01:28:19.873Z,2.10
2022-11-09T01:29:19.863Z,2.00
2022-11-09T01:30:19.840Z,2.80
2022-11-09T01:31:19.840Z,1.60
2022-11-09T01:32:19.833Z,2.10
2022-11-09T01:33:20.219Z,1.70
2022-11-09T01:34:19.965Z,2.90
2022-11-09T01:35:19.800Z,1.90
2022-11-09T01:36:19.792Z,2.40
2022-11-09T01:37:19.765Z,1.90
2022-11-09T01:38:19.766Z,1.70
2022-11-09T01:39:19.922Z,1.60
2022-11-09T01:40:19.743Z,2.30
2022-11-09T01:41:19.727Z,1.30
2022-11-09T01:42:19.722Z,1.70
2022-11-09T01:43:20.066Z,1.80
2022-11-09T01:46:36.827Z,1.60
2022-11-09T01:47:36.631Z,1.30
2022-11-09T01:48:36.628Z,1.50
2022-11-09T01:49:36.616Z,2.50
2022-11-09T01:50:36.601Z,1.50
2022-11-09T01:51:36.600Z,2.40
2022-11-09T01:52:36.751Z,1.80
2022-11-09T01:53:36.571Z,1.70
2022-11-09T01:54:36.570Z,1.70
2022-11-09T01:55:36.608Z,1.30
2022-11-09T01:56:36.538Z,1.00
2022-11-09T01:57:36.689Z,1.30
2022-11-09T01:58:36.517Z,1.20
2022-11-09T01:59:36.507Z,1.40
2022-11-09T02:00:36.509Z,1.20
2022-11-09T02:01:36.585Z,1.70
2022-11-09T02:02:36.490Z,1.30
2022-11-09T02:03:36.640Z,2.30
2022-11-09T02:04:36.464Z,2.20
2022-11-09T02:05:36.449Z,2.00
2022-11-09T02:06:36.468Z,1.90
2022-11-09T02:07:36.420Z,1.30
2022-11-09T02:08:36.593Z,2.20
2022-11-09T02:09:36.407Z,2.00
2022-11-09T02:10:36.388Z,1.60
2022-11-09T02:11:36.376Z,2.10
2022-11-09T02:12:36.374Z,1.40
2022-11-09T02:13:36.387Z,1.30
2022-11-09T02:14:36.525Z,1.90
2022-11-09T02:15:39.074Z,1.70
2022-11-09T02:16:37.334Z,1.80
2022-11-09T02:17:36.317Z,1.50
2022-11-09T02:18:36.310Z,1.40
2022-11-09T02:19:36.302Z,1.60
2022-11-09T02:20:36.447Z,3.40
2022-11-09T02:21:36.279Z,1.50
2022-11-09T02:22:36.269Z,1.70
2022-11-09T02:23:36.249Z,2.20
2022-11-09T02:24:36.237Z,2.40
2022-11-09T02:25:36.245Z,2.50
2022-11-09T02:26:36.396Z,2.60
2022-11-09T02:27:36.201Z,1.30
2022-11-09T02:28:36.205Z,1.20
2022-11-09T02:29:36.187Z,1.30
2022-11-09T02:30:36.179Z,1.70
2022-11-09T02:31:36.163Z,1.30
2022-11-09T02:32:36.307Z,3.20
2022-11-09T02:33:36.148Z,2.30
2022-11-09T02:34:36.138Z,1.80
2022-11-09T02:35:36.138Z,2.10
2022-11-09T02:36:36.276Z,2.00
2022-11-09T02:37:36.089Z,1.80
2022-11-09T02:38:36.093Z,1.40
2022-11-09T02:39:36.081Z,2.00
2022-11-09T02:40:36.071Z,1.20
2022-11-09T02:41:36.061Z,1.30
2022-11-09T02:42:36.207Z,1.60
2022-11-09T02:43:36.191Z,2.20
2022-11-09T02:44:36.036Z,2.70
2022-11-09T02:45:36.021Z,2.70
2022-11-09T02:46:36.006Z,2.20
2022-11-09T02:47:36.179Z,1.70
2022-11-09T02:48:36.007Z,3.10
2022-11-09T02:49:35.966Z,2.80
2022-11-09T02:50:36.449Z,2.10
2022-11-09T02:51:35.948Z,1.30
2022-11-09T02:52:35.934Z,1.40
2022-11-09T02:53:36.258Z,1.20
2022-11-09T02:54:35.921Z,2.60
2022-11-09T02:55:35.911Z,1.30
2022-11-09T02:56:35.902Z,1.30
2022-11-09T02:57:35.884Z,1.60
2022-11-09T02:58:35.866Z,1.30
2022-11-09T02:59:36.021Z,1.20
2022-11-09T03:00:35.885Z,1.20
2022-11-09T03:01:35.887Z,3.00
2022-11-09T03:02:35.840Z,1.90
2022-11-09T03:03:35.838Z,1.40
2022-11-09T03:04:36.017Z,0.90
2022-11-09T03:05:35.799Z,2.10
2022-11-09T03:06:35.883Z,1.70
2022-11-09T03:07:35.776Z,1.50
2022-11-09T03:08:35.773Z,0.90
2022-11-09T03:09:35.747Z,1.50
2022-11-09T03:10:35.918Z,3.30
2022-11-09T03:11:35.741Z,1.40
2022-11-09T03:12:35.726Z,1.80
2022-11-09T03:13:35.711Z,2.00
2022-11-09T03:14:35.727Z,1.90
2022-11-09T03:15:35.847Z,2.00
2022-11-09T03:16:35.678Z,2.70
2022-11-09T03:17:35.716Z,2.80
2022-11-09T03:18:35.825Z,1.90
2022-11-09T03:19:35.637Z,1.40
2022-11-09T03:20:35.637Z,2.80
2022-11-09T03:21:35.635Z,1.30
2022-11-09T03:22:35.608Z,2.40
2022-11-09T03:23:35.597Z,1.80
2022-11-09T03:24:35.776Z,1.80
2022-11-09T03:25:35.579Z,2.10
2022-11-09T03:26:35.617Z,1.70
2022-11-09T03:27:35.560Z,1.30
2022-11-09T03:28:35.661Z,1.90
2022-11-09T03:29:35.535Z,1.40
2022-11-09T03:30:35.699Z,2.00
2022-11-09T03:31:35.510Z,1.30
2022-11-09T03:32:35.496Z,1.30
2022-11-09T03:33:35.487Z,1.40
2022-11-09T03:34:35.508Z,2.20
2022-11-09T03:35:35.625Z,1.10
2022-11-09T03:36:35.459Z,1.40
2022-11-09T03:37:35.518Z,1.40
2022-11-09T03:38:35.446Z,1.30
2022-11-09T03:39:35.577Z,1.50
2022-11-09T03:40:35.433Z,2.30
2022-11-09T03:41:35.411Z,1.40
2022-11-09T03:42:35.558Z,1.70
2022-11-09T03:43:35.408Z,1.20
2022-11-09T03:44:35.387Z,2.20
2022-11-09T03:45:35.392Z,2.40
2022-11-09T03:46:35.364Z,1.30
2022-11-09T03:47:35.337Z,2.50
2022-11-09T03:48:35.503Z,0.90
2022-11-09T03:49:35.319Z,1.40
2022-11-09T03:50:35.306Z,1.60
2022-11-09T03:51:35.313Z,2.00
2022-11-09T03:52:35.278Z,1.70
2022-11-09T03:53:35.277Z,1.80
2022-11-09T03:54:35.428Z,8.40
2022-11-09T03:55:35.267Z,1.60
2022-11-09T03:56:35.248Z,1.90
2022-11-09T03:57:35.236Z,1.60
2022-11-09T03:58:35.233Z,1.70
2022-11-09T03:59:35.420Z,1.20
2022-11-09T04:00:35.208Z,1.10
2022-11-09T04:01:35.241Z,2.60
2022-11-09T04:02:35.177Z,3.50
2022-11-09T04:03:35.197Z,1.50
2022-11-09T04:04:35.174Z,1.60
2022-11-09T04:05:35.397Z,1.60
2022-11-09T04:06:35.177Z,2.00
2022-11-09T04:07:35.132Z,1.50
2022-11-09T04:08:35.106Z,2.30
2022-11-09T04:09:35.127Z,1.30
2022-11-09T04:10:35.101Z,2.30
2022-11-09T04:11:35.258Z,1.60
2022-11-09T04:12:35.079Z,1.90
2022-11-09T04:13:35.058Z,2.00
2022-11-09T04:14:35.059Z,1.30
2022-11-09T04:15:35.056Z,3.10
2022-11-09T04:16:35.045Z,1.40
2022-11-09T04:17:35.192Z,2.70
2022-11-09T04:18:35.017Z,2.00
2022-11-09T04:19:34.996Z,1.70
2022-11-09T04:20:34.998Z,1.80
2022-11-09T04:21:34.976Z,1.70
2022-11-09T04:22:34.967Z,2.00
2022-11-09T04:23:35.133Z,1.60
2022-11-09T04:24:34.982Z,1.70
2022-11-09T04:25:34.942Z,3.00
2022-11-09T04:26:34.925Z,1.90
2022-11-09T04:27:34.967Z,2.50
2022-11-09T04:28:34.897Z,2.70
2022-11-09T04:29:35.173Z,2.40
2022-11-09T04:30:34.870Z,2.50
2022-11-09T04:31:34.881Z,3.00
2022-11-09T04:32:34.849Z,2.40
2022-11-09T04:33:34.868Z,2.20
2022-11-09T04:34:34.842Z,2.70
2022-11-09T04:35:34.988Z,2.00
2022-11-09T04:36:34.848Z,1.40
2022-11-09T04:37:34.798Z,1.50
2022-11-09T04:38:34.819Z,2.50
2022-11-09T04:39:34.807Z,2.20
2022-11-09T04:40:34.792Z,2.00
2022-11-09T04:41:34.969Z,2.30
2022-11-09T04:42:34.902Z,1.70
2022-11-09T04:43:34.728Z,2.40
2022-11-09T04:44:34.722Z,2.90
2022-11-09T04:45:34.731Z,1.50
2022-11-09T04:46:34.872Z,1.90
2022-11-09T04:47:34.710Z,3.10
2022-11-09T04:48:34.688Z,1.70
2022-11-09T04:49:34.678Z,3.00
2022-11-09T04:50:34.658Z,1.70
2022-11-09T04:51:34.837Z,1.40
2022-11-09T04:52:34.656Z,2.00
2022-11-09T04:53:34.631Z,2.00
2022-11-09T04:54:34.608Z,1.90
2022-11-09T04:55:34.613Z,2.30
2022-11-09T04:56:34.600Z,2.30
2022-11-09T04:57:34.777Z,2.30
2022-11-09T04:58:34.572Z,1.60
2022-11-09T04:59:34.568Z,2.40
2022-11-09T05:00:34.557Z,1.70
2022-11-09T05:01:34.539Z,1.90
2022-11-09T05:02:34.528Z,1.90
2022-11-09T05:03:34.790Z,2.00
2022-11-09T05:04:34.512Z,2.50
2022-11-09T05:05:34.503Z,1.90
2022-11-09T05:06:34.591Z,2.10
2022-11-09T05:07:34.487Z,3.50
2022-11-09T05:08:34.466Z,2.80
2022-11-09T05:09:34.621Z,2.90
2022-11-09T05:10:34.587Z,3.30
2022-11-09T05:11:34.431Z,3.30
2022-11-09T05:12:34.425Z,1.60
2022-11-09T05:13:34.407Z,2.40
2022-11-09T05:14:34.400Z,2.40
2022-11-09T05:15:34.572Z,1.80
2022-11-09T05:16:34.377Z,2.20
2022-11-09T05:17:34.386Z,1.90
2022-11-09T05:18:34.363Z,2.60
2022-11-09T05:19:34.345Z,2.30
2022-11-09T05:20:34.328Z,3.20
2022-11-09T05:21:34.513Z,1.90
2022-11-09T05:22:34.309Z,2.50
2022-11-09T05:23:34.329Z,2.00
2022-11-09T05:24:34.287Z,2.00
2022-11-09T05:25:34.321Z,2.90
2022-11-09T05:26:34.309Z,2.90
2022-11-09T05:27:34.580Z,2.50
2022-11-09T05:28:34.397Z,3.00
2022-11-09T05:29:34.338Z,2.30
2022-11-09T05:30:34.348Z,1.90
2022-11-09T05:31:34.386Z,2.40
2022-11-09T05:32:34.283Z,1.90
2022-11-09T05:33:34.437Z,1.80
2022-11-09T05:34:34.283Z,1.60
2022-11-09T05:35:34.213Z,2.40
2022-11-09T05:36:34.261Z,2.50
2022-11-09T05:37:34.229Z,2.40
2022-11-09T05:38:34.684Z,2.40
2022-11-09T05:39:34.370Z,1.70
2022-11-09T05:40:34.204Z,2.60
2022-11-09T05:41:34.251Z,1.60
2022-11-09T05:42:34.179Z,2.00
2022-11-09T05:43:34.192Z,2.30
2022-11-09T05:44:34.382Z,2.20
2022-11-09T05:45:43.436Z,3.00
2022-11-09T05:46:35.090Z,1.50
2022-11-09T05:47:34.051Z,2.60
2022-11-09T05:48:34.041Z,2.30
2022-11-09T05:49:34.042Z,2.20
2022-11-09T05:50:34.195Z,2.60
2022-11-09T05:51:34.012Z,2.10
2022-11-09T05:52:33.997Z,3.30
2022-11-09T05:53:33.995Z,2.10
2022-11-09T05:54:33.962Z,2.30
2022-11-09T05:55:34.280Z,3.60
2022-11-09T05:56:33.968Z,3.30
2022-11-09T05:57:33.942Z,2.60
2022-11-09T05:58:33.919Z,3.50
2022-11-09T05:59:33.923Z,2.30
2022-11-09T06:00:33.912Z,3.50
2022-11-09T06:01:34.071Z,2.60
2022-11-09T06:02:33.935Z,3.20
2022-11-09T06:03:33.882Z,2.60
2022-11-09T06:04:33.860Z,2.20
2022-11-09T06:05:33.860Z,2.70
2022-11-09T06:06:33.874Z,4.60
2022-11-09T06:07:33.992Z,5.00
2022-11-09T06:08:33.826Z,4.00
2022-11-09T06:09:33.811Z,8.10
2022-11-09T06:10:34.024Z,12.60
2022-11-09T06:11:33.812Z,8.80
2022-11-09T06:12:33.780Z,8.00
2022-11-09T06:13:33.776Z,8.20
2022-11-09T06:14:33.752Z,7.40
2022-11-09T06:15:33.953Z,5.40
2022-11-09T06:16:33.752Z,4.20
2022-11-09T06:17:33.755Z,3.40
2022-11-09T06:18:33.727Z,2.90
2022-11-09T06:19:33.718Z,2.30
2022-11-09T06:20:33.690Z,2.50
2022-11-09T06:21:33.852Z,4.60
2022-11-09T06:22:33.671Z,2.70
2022-11-09T06:23:33.656Z,3.60
2022-11-09T06:24:41.171Z,2.40
2022-11-09T06:25:33.738Z,3.00
2022-11-09T06:26:33.619Z,3.00
2022-11-09T06:27:33.806Z,2.40
2022-11-09T06:28:33.594Z,2.50
2022-11-09T06:29:33.598Z,2.60
2022-11-09T06:30:33.570Z,2.60
2022-11-09T06:31:33.564Z,3.00
2022-11-09T06:32:33.566Z,2.60
2022-11-09T06:33:33.722Z,3.40
2022-11-09T06:34:33.530Z,4.00
2022-11-09T06:35:33.531Z,3.00
2022-11-09T06:36:33.508Z,2.70
2022-11-09T06:37:33.499Z,3.40
2022-11-09T06:38:33.500Z,4.50
2022-11-09T06:39:33.732Z,3.60
2022-11-09T06:40:33.460Z,6.40
2022-11-09T06:41:33.467Z,7.10
2022-11-09T06:42:33.468Z,8.30
2022-11-09T06:43:33.443Z,15.10
2022-11-09T06:44:33.444Z,13.60
2022-11-09T06:45:33.591Z,13.70
2022-11-09T06:46:33.399Z,12.60
2022-11-09T06:47:33.406Z,13.70
2022-11-09T06:48:33.389Z,13.40
2022-11-09T06:49:33.400Z,15.50
2022-11-09T06:50:33.355Z,15.00
2022-11-09T06:51:33.593Z,12.70
2022-11-09T06:52:33.340Z,12.30
2022-11-09T06:53:33.337Z,10.40
2022-11-09T06:54:33.324Z,11.30
2022-11-09T06:55:33.311Z,11.20
2022-11-09T06:56:33.295Z,9.70
2022-11-09T06:57:33.460Z,10.60
2022-11-09T06:58:33.268Z,10.50
2022-11-09T06:59:33.267Z,10.50
2022-11-09T07:00:33.247Z,9.30
2022-11-09T07:01:33.276Z,9.90
2022-11-09T07:02:33.236Z,6.90
2022-11-09T07:03:33.398Z,5.80
2022-11-09T07:04:33.219Z,5.20
2022-11-09T07:05:33.200Z,5.90
2022-11-09T07:06:33.355Z,6.20
2022-11-09T07:07:33.190Z,7.90
2022-11-09T07:08:33.163Z,6.90
2022-11-09T07:09:33.313Z,7.80
2022-11-09T07:10:33.157Z,6.50
2022-11-09T07:11:33.133Z,6.50
2022-11-09T07:12:33.121Z,8.60
2022-11-09T07:13:33.116Z,8.90
2022-11-09T07:14:33.258Z,8.80
2022-11-09T07:15:33.088Z,21.90
2022-11-09T07:16:33.078Z,36.80
2022-11-09T07:17:33.071Z,34.60
2022-11-09T07:18:33.054Z,29.50
2022-11-09T07:19:33.281Z,16.50
2022-11-09T07:20:33.037Z,9.80
2022-11-09T07:21:33.037Z,7.70
2022-11-09T07:22:33.009Z,6.20
2022-11-09T07:23:33.001Z,6.20
2022-11-09T07:24:33.163Z,5.90
2022-11-09T07:25:32.998Z,5.20
2022-11-09T07:26:32.969Z,5.30
2022-11-09T07:27:32.968Z,4.10
2022-11-09T07:28:32.962Z,3.20
2022-11-09T07:29:33.324Z,3.10
2022-11-09T07:30:32.928Z,2.90
2022-11-09T07:31:32.933Z,2.30
2022-11-09T07:33:02.533Z,2.50
2022-11-09T07:33:33.899Z,2.30
2022-11-09T07:34:33.072Z,1.80
2022-11-09T07:35:32.884Z,2.50
2022-11-09T07:36:32.870Z,2.60
2022-11-09T07:37:32.870Z,2.00
2022-11-09T07:38:32.839Z,2.30
2022-11-09T07:39:32.987Z,1.90
2022-11-09T07:40:32.829Z,2.60
2022-11-09T07:41:34.822Z,2.20
2022-11-09T07:42:32.797Z,2.30
2022-11-09T07:43:32.873Z,2.20
2022-11-09T07:44:32.929Z,2.00
2022-11-09T07:45:32.768Z,1.70
2022-11-09T07:46:32.979Z,1.60
2022-11-09T07:47:32.737Z,1.90
2022-11-09T07:48:32.736Z,1.70
2022-11-09T07:49:32.733Z,1.90
2022-11-09T07:50:32.713Z,1.40
2022-11-09T07:51:32.702Z,1.40
2022-11-09T07:52:32.889Z,1.90
2022-11-09T07:53:32.690Z,1.60
2022-11-09T07:54:32.675Z,1.40
2022-11-09T07:55:32.693Z,1.40
2022-11-09T07:56:32.653Z,1.60
2022-11-09T07:57:32.638Z,1.40
2022-11-09T07:58:32.787Z,1.30
2022-11-09T07:59:32.619Z,1.60
2022-11-09T08:00:32.630Z,2.10
2022-11-09T08:01:32.603Z,1.60
2022-11-09T08:02:32.656Z,1.50
2022-11-09T08:03:32.747Z,1.30
2022-11-09T08:04:32.574Z,1.40
2022-11-09T08:05:32.576Z,3.10
2022-11-09T08:06:32.588Z,1.40
2022-11-09T08:07:32.529Z,2.20
2022-11-09T08:08:32.549Z,1.20
2022-11-09T08:09:32.676Z,1.70
2022-11-09T08:10:32.501Z,1.50
2022-11-09T08:11:32.497Z,1.40
2022-11-09T08:12:36.924Z,1.80
2022-11-09T08:13:32.466Z,1.30
2022-11-09T08:14:32.709Z,1.80
2022-11-09T08:15:32.480Z,1.20
2022-11-09T08:16:37.511Z,1.20
2022-11-09T08:17:33.428Z,1.70
2022-11-09T08:18:32.415Z,1.70
2022-11-09T08:19:32.398Z,1.40
2022-11-09T08:20:32.588Z,1.30
2022-11-09T08:21:32.548Z,1.60
2022-11-09T08:22:32.381Z,1.30
2022-11-09T08:23:32.361Z,1.10
2022-11-09T08:24:32.377Z,1.40
2022-11-09T08:25:32.336Z,1.30
2022-11-09T08:26:32.510Z,1.40
2022-11-09T08:27:32.316Z,1.60
2022-11-09T08:28:32.318Z,1.40
2022-11-09T08:29:32.321Z,1.40
2022-11-09T08:30:32.310Z,1.50
2022-11-09T08:31:32.272Z,1.50
2022-11-09T08:32:32.475Z,1.50
2022-11-09T08:33:32.246Z,1.30
2022-11-09T08:34:32.246Z,1.40
2022-11-09T08:35:32.235Z,1.40
2022-11-09T08:36:32.228Z,2.20
2022-11-09T08:37:32.373Z,1.40
2022-11-09T08:38:32.205Z,1.10
2022-11-09T08:39:32.176Z,1.20
2022-11-09T08:40:32.194Z,1.90
2022-11-09T08:41:32.164Z,1.40
2022-11-09T08:42:32.314Z,1.00
2022-11-09T08:43:32.165Z,2.00
2022-11-09T08:44:32.142Z,1.00
2022-11-09T08:45:32.117Z,1.20
2022-11-09T08:46:33.914Z,1.40
2022-11-09T08:47:32.265Z,1.20
2022-11-09T08:48:32.086Z,1.10
2022-11-09T08:49:32.077Z,1.10
2022-11-09T08:50:32.075Z,1.20
2022-11-09T08:51:32.067Z,0.90
2022-11-09T08:52:32.213Z,1.00
2022-11-09T08:53:32.045Z,0.90
2022-11-09T08:54:32.037Z,0.70
2022-11-09T08:55:32.020Z,0.70
2022-11-09T08:56:32.023Z,1.00
2022-11-09T08:57:31.997Z,0.80
2022-11-09T08:58:32.211Z,2.10
2022-11-09T08:59:31.966Z,0.80
2022-11-09T09:00:32.015Z,1.10
2022-11-09T09:01:31.976Z,0.70
2022-11-09T09:02:32.105Z,0.80
2022-11-09T09:03:31.935Z,3.70
2022-11-09T09:04:31.925Z,0.70
2022-11-09T09:05:31.909Z,1.90
2022-11-09T09:06:31.907Z,1.40
2022-11-09T09:07:32.047Z,1.10
2022-11-09T09:08:31.881Z,0.70
2022-11-09T09:09:31.868Z,0.70
2022-11-09T09:10:31.855Z,1.00
2022-11-09T09:11:31.845Z,1.00
2022-11-09T09:12:32.006Z,0.90
2022-11-09T09:13:31.816Z,0.70
2022-11-09T09:14:31.821Z,0.80
2022-11-09T09:15:31.803Z,0.90
2022-11-09T09:16:31.790Z,1.20
2022-11-09T09:17:31.941Z,1.10
2022-11-09T09:18:31.765Z,0.70
2022-11-09T09:19:31.850Z,1.10
2022-11-09T09:20:31.756Z,0.90
2022-11-09T09:21:31.740Z,1.30
2022-11-09T09:22:31.883Z,1.00
2022-11-09T09:23:31.724Z,1.80
2022-11-09T09:24:31.708Z,0.90
2022-11-09T09:25:31.700Z,0.80
2022-11-09T09:26:31.685Z,0.80
2022-11-09T09:27:31.723Z,0.70
2022-11-09T09:28:31.844Z,1.30
2022-11-09T09:29:31.656Z,1.40
2022-11-09T09:30:31.639Z,1.00
2022-11-09T09:31:31.638Z,1.00
2022-11-09T09:32:31.646Z,0.90
2022-11-09T09:33:31.615Z,1.30
2022-11-09T09:34:31.764Z,1.30
2022-11-09T09:35:31.583Z,1.50
2022-11-09T09:36:31.577Z,0.70
2022-11-09T09:37:31.569Z,1.50
2022-11-09T09:38:31.753Z,1.20
2022-11-09T09:39:31.567Z,0.70
2022-11-09T09:40:31.537Z,0.70
2022-11-09T09:41:31.537Z,1.30
2022-11-09T09:42:31.511Z,1.10
2022-11-09T09:43:31.497Z,1.70
2022-11-09T09:44:31.656Z,1.00
2022-11-09T09:45:31.479Z,0.80
2022-11-09T09:46:31.463Z,0.60
2022-11-09T09:47:31.455Z,1.00
2022-11-09T09:48:31.458Z,0.70
2022-11-09T09:49:31.496Z,0.90
2022-11-09T09:50:31.632Z,1.20
2022-11-09T09:51:31.404Z,0.90
2022-11-09T09:52:31.427Z,1.20
2022-11-09T09:53:31.390Z,1.00
2022-11-09T09:54:31.396Z,0.80
2022-11-09T09:55:31.355Z,1.80
2022-11-09T09:56:31.545Z,0.90
2022-11-09T09:57:31.342Z,0.80
2022-11-09T09:58:31.327Z,1.10
2022-11-09T09:59:31.337Z,1.30
2022-11-09T10:00:31.319Z,0.80
2022-11-09T10:01:31.306Z,0.60
2022-11-09T10:02:31.459Z,0.50
2022-11-09T10:03:31.274Z,2.10
2022-11-09T10:04:31.309Z,0.60
2022-11-09T10:05:31.264Z,0.60
2022-11-09T10:06:31.436Z,0.60
2022-11-09T10:07:31.242Z,0.70
2022-11-09T10:08:31.230Z,0.70
2022-11-09T10:09:31.210Z,1.10
2022-11-09T10:10:31.207Z,1.70
2022-11-09T10:11:31.378Z,0.60
2022-11-09T10:12:31.179Z,0.50
2022-11-09T10:13:31.179Z,0.50
2022-11-09T10:14:31.186Z,1.20
2022-11-09T10:15:31.150Z,1.10
2022-11-09T10:16:31.290Z,0.60
2022-11-09T10:17:31.127Z,0.90
2022-11-09T10:18:31.120Z,0.50
2022-11-09T10:19:31.111Z,0.50
2022-11-09T10:20:31.112Z,0.70
2022-11-09T10:21:31.276Z,0.40
2022-11-09T10:22:31.080Z,0.90
2022-11-09T10:23:31.112Z,1.40
2022-11-09T10:24:31.066Z,0.50
2022-11-09T10:25:50.776Z,2.20
2022-11-09T10:26:32.186Z,1.20
2022-11-09T10:27:31.015Z,0.80
2022-11-09T10:28:47.620Z,0.70
2022-11-09T10:29:32.155Z,0.70
2022-11-09T10:30:30.983Z,0.60
2022-11-09T10:31:31.011Z,0.90
2022-11-09T10:32:30.975Z,1.30
2022-11-09T10:33:30.949Z,0.70
2022-11-09T10:34:31.022Z,1.00
2022-11-09T10:35:31.110Z,0.90
2022-11-09T10:36:30.920Z,0.50
2022-11-09T10:37:30.920Z,2.30
2022-11-09T10:38:30.946Z,0.70
2022-11-09T10:39:30.886Z,0.50
2022-11-09T10:40:30.912Z,1.30
2022-11-09T10:41:31.040Z,0.50
2022-11-09T10:42:30.860Z,0.80
2022-11-09T10:43:38.371Z,0.50
2022-11-09T10:44:30.821Z,0.60
2022-11-09T10:45:38.321Z,0.50
2022-11-09T10:46:39.518Z,0.90
2022-11-09T10:47:38.299Z,0.70
2022-11-09T10:48:38.305Z,1.30
2022-11-09T10:49:30.759Z,0.50
2022-11-09T10:50:38.277Z,0.60
2022-11-09T10:51:38.428Z,0.80
2022-11-09T10:52:41.655Z,1.60
2022-11-09T10:53:31.722Z,0.50
2022-11-09T10:54:30.747Z,1.00
2022-11-09T10:55:30.741Z,1.10
2022-11-09T10:56:37.289Z,0.70
2022-11-09T10:57:31.865Z,0.60
2022-11-09T10:58:30.693Z,1.40
2022-11-09T10:59:30.671Z,1.90
2022-11-09T11:00:30.663Z,1.10
2022-11-09T11:01:30.686Z,1.20
2022-11-09T11:02:30.644Z,0.80
2022-11-09T11:03:30.782Z,1.20
2022-11-09T11:04:30.662Z,1.40
2022-11-09T11:05:30.624Z,1.50
2022-11-09T11:06:30.679Z,1.00
2022-11-09T11:07:30.633Z,2.40
2022-11-09T11:08:30.764Z,1.10
2022-11-09T11:09:30.574Z,1.80
2022-11-09T11:10:30.577Z,1.80
2022-11-09T11:11:35.820Z,1.60
2022-11-09T11:12:31.603Z,1.10
2022-11-09T11:13:30.692Z,1.60
2022-11-09T11:14:30.523Z,1.30
2022-11-09T11:15:30.494Z,1.70
2022-11-09T11:16:30.495Z,0.90
2022-11-09T11:17:30.475Z,1.00
2022-11-09T11:18:30.475Z,1.00
2022-11-09T11:19:30.634Z,0.90
2022-11-09T11:20:30.445Z,1.00
2022-11-09T11:21:30.436Z,1.30
2022-11-09T11:22:30.448Z,0.80
2022-11-09T11:23:30.427Z,1.00
2022-11-09T11:24:30.416Z,0.60
2022-11-09T11:25:30.415Z,0.70
2022-11-09T11:26:30.502Z,4.50
2022-11-09T11:27:30.371Z,2.00
2022-11-09T11:28:30.358Z,1.20
2022-11-09T11:29:30.351Z,1.30
2022-11-09T11:30:30.506Z,3.10
2022-11-09T11:31:30.321Z,9.00
2022-11-09T11:32:30.323Z,12.80
2022-11-09T11:33:30.297Z,8.20
2022-11-09T11:34:58.097Z,11.60
2022-11-09T11:35:31.434Z,13.50
2022-11-09T11:36:30.272Z,7.00
2022-11-09T11:37:30.255Z,2.60
2022-11-09T11:38:30.268Z,2.10
2022-11-09T11:39:30.235Z,1.30
2022-11-09T11:40:30.235Z,0.80
2022-11-09T11:41:30.374Z,1.20
2022-11-09T11:42:30.215Z,1.30
2022-11-09T11:43:30.216Z,1.50
2022-11-09T11:44:30.192Z,1.50
2022-11-09T11:45:45.509Z,1.50
2022-11-09T11:46:31.324Z,1.60
2022-11-09T11:47:30.195Z,0.70
2022-11-09T11:48:30.136Z,0.80
2022-11-09T11:49:30.135Z,1.20
2022-11-09T11:50:30.123Z,0.70
2022-11-09T11:51:30.104Z,0.80
2022-11-09T11:52:30.249Z,0.70
2022-11-09T11:53:30.089Z,0.70
2022-11-09T11:54:30.067Z,1.10
2022-11-09T11:55:30.077Z,1.10
2022-11-09T11:56:30.060Z,0.70
2022-11-09T11:57:30.276Z,0.90
2022-11-09T11:58:30.039Z,0.60
2022-11-09T11:59:30.033Z,0.70
2022-11-09T12:00:30.005Z,1.00
2022-11-09T12:01:30.007Z,0.60
2022-11-09T12:02:30.076Z,0.60
2022-11-09T12:03:30.205Z,0.90
2022-11-09T12:04:32.285Z,0.70
2022-11-09T12:05:29.964Z,0.70
2022-11-09T12:06:29.993Z,1.40
2022-11-09T12:07:30.005Z,1.70
2022-11-09T12:08:30.081Z,1.00
2022-11-09T12:09:29.920Z,0.60
2022-11-09T12:10:29.917Z,0.40
2022-11-09T12:11:29.980Z,0.80
2022-11-09T12:12:29.875Z,0.90
2022-11-09T12:13:29.867Z,0.50
2022-11-09T12:14:30.045Z,0.90
2022-11-09T12:15:29.852Z,0.70
2022-11-09T12:16:29.847Z,0.50
2022-11-09T12:17:29.864Z,0.30
2022-11-09T12:18:29.819Z,0.50
2022-11-09T12:19:34.319Z,0.60
2022-11-09T12:20:30.997Z,1.00
2022-11-09T12:21:29.776Z,0.60
2022-11-09T12:22:29.775Z,0.50
2022-11-09T12:23:29.773Z,0.50
2022-11-09T12:24:29.758Z,0.70
2022-11-09T12:25:29.905Z,0.80
2022-11-09T12:26:29.729Z,0.80
2022-11-09T12:27:32.483Z,0.60
2022-11-09T12:28:29.710Z,0.60
2022-11-09T12:29:29.698Z,0.90
2022-11-09T12:30:29.691Z,4.90
2022-11-09T12:31:29.840Z,1.00
2022-11-09T12:32:29.665Z,0.50
2022-11-09T12:33:34.671Z,0.70
2022-11-09T12:34:30.656Z,0.60
2022-11-09T12:35:29.638Z,1.70
2022-11-09T12:36:29.992Z,2.10
2022-11-09T12:37:29.615Z,0.50
2022-11-09T12:38:29.613Z,1.10
2022-11-09T12:39:29.591Z,0.50
2022-11-09T12:40:29.579Z,1.50
2022-11-09T12:41:29.583Z,0.70
2022-11-09T12:42:29.720Z,1.70
2022-11-09T12:43:29.549Z,0.40
2022-11-09T12:44:29.526Z,0.30
2022-11-09T12:45:29.544Z,0.40
2022-11-09T12:46:29.509Z,0.90
2022-11-09T12:47:29.666Z,0.40
2022-11-09T12:48:29.500Z,1.80
2022-11-09T12:49:29.488Z,0.50
2022-11-09T12:50:29.471Z,0.70
2022-11-09T12:51:29.451Z,2.80
2022-11-09T12:52:29.617Z,2.30
2022-11-09T12:53:29.436Z,1.80
2022-11-09T12:54:29.437Z,1.10
2022-11-09T12:55:29.449Z,0.80
2022-11-09T12:56:29.418Z,1.10
2022-11-09T12:57:29.398Z,0.70
2022-11-09T12:58:29.566Z,0.90
2022-11-09T12:59:29.394Z,1.70
2022-11-09T13:00:29.358Z,1.50
2022-11-09T13:01:29.408Z,0.80
2022-11-09T13:02:29.340Z,0.50
2022-11-09T13:03:29.549Z,0.70
2022-11-09T13:04:29.327Z,0.50
2022-11-09T13:05:29.320Z,0.40
2022-11-09T13:06:29.379Z,0.40
2022-11-09T13:07:29.287Z,0.30
2022-11-09T13:08:29.308Z,0.40
2022-11-09T13:09:43.618Z,0.30
2022-11-09T13:10:30.267Z,0.30
2022-11-09T13:11:29.247Z,0.40
2022-11-09T13:12:29.240Z,0.30
2022-11-09T13:13:29.229Z,0.60
2022-11-09T13:14:29.209Z,0.60
2022-11-09T13:15:29.430Z,0.60
2022-11-09T13:16:29.196Z,0.60
2022-11-09T13:17:29.193Z,1.30
2022-11-09T13:18:32.345Z,1.80
2022-11-09T13:19:30.156Z,0.50